Lindsay, Texas
Current Conditions -  °F | °C
As of 3:53 PM on Friday 28 Nov 2014 (Local Time) from KDTO Reporting Station
Clear Clear  
Wind Chill: 69°   Ceiling: Unl
Heat Index: 69°   Visibility: 10mi
Dew Point: 48°   Wind: 21mph
Humidity: 47%   Direction: 180°S
Pressure: 30.01"   Gusts: NA
Location:  33.64°N, 97.22°W
Report Text: KDTO 282153Z 18018KT 10SM CLR 21/09 A3001 RMK AO2 PK WND 19027/2105 SLP160 T02060089
Loading
Personal Weather Stations






























Interactive Weather Map New forecast layout! Learn more

10-Day Weather Forecast

Advertisements
Track Severe Weather on mobile